createdAt,value
2023-05-19T00:00:37.071Z,73.52
2023-05-19T00:01:38.780Z,73.71
2023-05-19T00:02:40.793Z,73.48
2023-05-19T00:03:57.429Z,73.44
2023-05-19T00:05:02.827Z,73.63
2023-05-19T00:06:04.870Z,74.03
2023-05-19T00:07:08.992Z,73.85
2023-05-19T00:08:11.328Z,74.06
2023-05-19T00:09:13.029Z,73.77
2023-05-19T00:10:15.326Z,74.14
2023-05-19T00:11:16.925Z,75.42
2023-05-19T00:12:18.589Z,75.14
2023-05-19T00:13:21.383Z,74.44
2023-05-19T00:14:23.070Z,75.03
2023-05-19T00:15:24.748Z,75.63
2023-05-19T00:16:27.943Z,76.10
2023-05-19T00:17:29.626Z,74.28
2023-05-19T00:18:31.117Z,76.29
2023-05-19T00:19:33.450Z,74.66
2023-05-19T00:20:35.005Z,76.35
2023-05-19T00:21:38.316Z,75.75
2023-05-19T00:22:40.326Z,75.33
2023-05-19T00:23:42.358Z,76.34
2023-05-19T00:24:43.919Z,76.24
2023-05-19T00:25:45.399Z,76.02
2023-05-19T00:26:46.823Z,76.06
2023-05-19T00:27:48.259Z,75.90
2023-05-19T00:28:50.669Z,74.94
2023-05-19T00:29:52.149Z,76.19
2023-05-19T00:30:53.655Z,76.44
2023-05-19T00:31:56.544Z,75.04
2023-05-19T00:32:58.357Z,74.84
2023-05-19T00:33:59.932Z,75.74
2023-05-19T00:35:01.396Z,75.76
2023-05-19T00:36:03.920Z,75.07
2023-05-19T00:37:05.548Z,76.17
2023-05-19T00:38:07.027Z,75.18
2023-05-19T00:39:08.509Z,76.19
2023-05-19T00:40:10.760Z,75.73
2023-05-19T00:41:12.259Z,75.47
2023-05-19T00:42:14.526Z,75.74
2023-05-19T00:43:16.064Z,75.90
2023-05-19T00:44:17.509Z,74.64
2023-05-19T00:45:19.062Z,75.35
2023-05-19T00:46:20.675Z,75.26
2023-05-19T00:47:22.203Z,75.53
2023-05-19T00:48:25.836Z,75.65
2023-05-19T00:49:27.328Z,75.75
2023-05-19T00:50:29.077Z,75.72
2023-05-19T00:51:32.048Z,75.39
2023-05-19T00:52:33.665Z,76.01
2023-05-19T00:53:35.677Z,75.96
2023-05-19T00:54:37.072Z,76.57
2023-05-19T00:55:40.538Z,75.68
2023-05-19T00:56:42.182Z,76.27
2023-05-19T00:57:44.394Z,76.02
2023-05-19T00:58:46.750Z,76.31
2023-05-19T00:59:48.879Z,76.68
2023-05-19T01:00:50.621Z,76.67
2023-05-19T01:01:52.835Z,76.88
2023-05-19T01:02:56.047Z,77.19
2023-05-19T01:03:59.140Z,77.22
2023-05-19T01:05:01.921Z,76.74
2023-05-19T01:06:05.580Z,77.48
2023-05-19T01:07:07.758Z,77.23
2023-05-19T01:08:09.296Z,77.15
2023-05-19T01:09:11.915Z,77.17
2023-05-19T01:10:13.461Z,76.50
2023-05-19T01:11:14.926Z,77.20
2023-05-19T01:12:16.416Z,76.55
2023-05-19T01:13:17.968Z,76.98
2023-05-19T01:14:20.670Z,76.33
2023-05-19T01:15:23.811Z,77.31
2023-05-19T01:16:32.639Z,77.04
2023-05-19T01:17:57.286Z,76.86
2023-05-19T01:19:12.253Z,77.01
2023-05-19T01:20:22.712Z,77.06
2023-05-19T01:21:48.902Z,76.60
2023-05-19T01:23:16.708Z,77.31
2023-05-19T01:24:36.295Z,77.69
2023-05-19T01:26:11.570Z,77.75
2023-05-19T01:27:16.009Z,76.74
2023-05-19T01:28:55.257Z,77.69
2023-05-19T01:30:36.952Z,77.44
2023-05-19T01:31:41.419Z,77.27
2023-05-19T01:32:45.490Z,77.10
2023-05-19T01:33:49.007Z,76.41
2023-05-19T01:34:51.064Z,75.88
2023-05-19T01:35:53.326Z,76.07
2023-05-19T01:36:55.766Z,75.95
2023-05-19T01:37:59.577Z,75.65
2023-05-19T01:39:02.317Z,76.24
2023-05-19T01:40:04.285Z,76.65
2023-05-19T01:41:06.589Z,76.50
2023-05-19T01:42:08.344Z,76.47
2023-05-19T01:43:16.669Z,77.20
2023-05-19T01:44:19.597Z,76.58
2023-05-19T01:45:21.685Z,76.69
2023-05-19T01:46:23.733Z,77.04
2023-05-19T01:47:25.651Z,78.01
2023-05-19T01:48:28.550Z,77.57
2023-05-19T01:49:30.120Z,77.65
2023-05-19T01:50:32.848Z,77.62
2023-05-19T01:51:34.633Z,78.01
2023-05-19T01:52:36.118Z,77.43
2023-05-19T01:53:37.584Z,78.48
2023-05-19T01:54:39.120Z,79.33
2023-05-19T01:55:48.109Z,78.53
2023-05-19T01:57:04.123Z,78.22
2023-05-19T01:58:21.280Z,78.68
2023-05-19T01:59:27.461Z,77.71
2023-05-19T02:00:45.926Z,77.99
2023-05-19T02:01:54.854Z,78.35
2023-05-19T02:03:12.704Z,78.26
2023-05-19T02:04:49.957Z,77.87
2023-05-19T02:06:03.446Z,79.28
2023-05-19T02:07:17.240Z,79.06
2023-05-19T02:08:33.524Z,78.24
2023-05-19T02:09:41.074Z,79.37
2023-05-19T02:10:48.602Z,78.92
2023-05-19T02:12:06.092Z,79.37
2023-05-19T02:13:11.204Z,78.69
2023-05-19T02:14:28.775Z,78.91
2023-05-19T02:15:38.564Z,79.34
2023-05-19T02:16:45.023Z,80.05
2023-05-19T02:17:50.563Z,79.19
2023-05-19T02:18:53.843Z,79.98
2023-05-19T02:19:55.415Z,80.14
2023-05-19T02:20:56.907Z,80.50
2023-05-19T02:21:58.827Z,80.77
2023-05-19T02:23:00.326Z,80.03
2023-05-19T02:24:01.877Z,79.93
2023-05-19T02:25:03.653Z,80.12
2023-05-19T02:26:05.279Z,80.38
2023-05-19T02:27:06.998Z,80.74
2023-05-19T02:28:08.442Z,80.75
2023-05-19T02:29:09.928Z,80.67
2023-05-19T02:30:11.553Z,80.96
2023-05-19T02:31:13.021Z,81.60
2023-05-19T02:32:14.858Z,81.09
2023-05-19T02:33:16.373Z,81.28
2023-05-19T02:34:17.850Z,80.88
2023-05-19T02:35:19.467Z,80.21
2023-05-19T02:36:20.920Z,80.31
2023-05-19T02:37:23.839Z,80.03
2023-05-19T02:38:25.793Z,80.71
2023-05-19T02:39:29.065Z,80.55
2023-05-19T02:40:30.774Z,79.84
2023-05-19T02:41:32.534Z,80.03
2023-05-19T02:42:34.035Z,79.71
2023-05-19T02:43:35.564Z,79.92
2023-05-19T02:44:37.040Z,79.82
2023-05-19T02:45:38.477Z,79.77
2023-05-19T02:46:40.037Z,79.33
2023-05-19T02:47:41.644Z,80.30
2023-05-19T02:48:43.125Z,80.12
2023-05-19T02:49:45.022Z,79.91
2023-05-19T02:50:46.481Z,80.04
2023-05-19T02:51:47.928Z,78.83
2023-05-19T02:52:49.382Z,78.81
2023-05-19T02:53:51.018Z,79.16
2023-05-19T02:54:52.521Z,79.09
2023-05-19T02:55:54.004Z,79.14
2023-05-19T02:56:55.566Z,79.02
2023-05-19T02:57:57.046Z,78.34
2023-05-19T02:58:58.563Z,78.33
2023-05-19T03:00:00.159Z,78.70
2023-05-19T03:01:01.657Z,77.28
2023-05-19T03:02:03.207Z,78.45
2023-05-19T03:03:04.763Z,78.72
2023-05-19T03:04:06.394Z,78.17
2023-05-19T03:05:08.450Z,77.51
2023-05-19T03:06:09.818Z,77.02
2023-05-19T03:07:13.245Z,76.73
2023-05-19T03:08:14.895Z,77.29
2023-05-19T03:09:16.442Z,77.18
2023-05-19T03:10:17.927Z,77.69
2023-05-19T03:11:19.380Z,77.01
2023-05-19T03:12:21.800Z,77.52
2023-05-19T03:13:23.241Z,77.28
2023-05-19T03:14:24.799Z,77.46
2023-05-19T03:15:26.321Z,77.13
2023-05-19T03:16:27.934Z,78.20
2023-05-19T03:17:33.633Z,77.81
2023-05-19T03:18:36.018Z,79.47
2023-05-19T03:19:37.623Z,79.18
2023-05-19T03:20:41.498Z,78.73
2023-05-19T03:21:43.152Z,78.24
2023-05-19T03:22:44.641Z,78.10
2023-05-19T03:23:47.018Z,77.29
2023-05-19T03:24:51.033Z,78.91
2023-05-19T03:25:54.208Z,79.62
2023-05-19T03:26:55.761Z,79.39
2023-05-19T03:27:57.215Z,78.50
2023-05-19T03:28:58.687Z,77.90
2023-05-19T03:30:00.278Z,78.56
2023-05-19T03:31:01.724Z,79.09
2023-05-19T03:32:03.386Z,77.87
2023-05-19T03:33:07.543Z,77.65
2023-05-19T03:34:09.297Z,78.74
2023-05-19T03:35:10.833Z,79.00
2023-05-19T03:36:12.626Z,79.32
2023-05-19T03:37:14.198Z,78.23
2023-05-19T03:38:15.736Z,79.55
2023-05-19T03:39:17.246Z,79.25
2023-05-19T03:40:18.934Z,79.79
2023-05-19T03:41:21.239Z,80.09
2023-05-19T03:42:22.736Z,79.69
2023-05-19T03:43:24.229Z,79.72
2023-05-19T03:44:25.759Z,80.33
2023-05-19T03:45:27.956Z,79.14
2023-05-19T03:46:29.478Z,78.89
2023-05-19T03:47:31.792Z,79.58
2023-05-19T03:48:33.289Z,78.80
2023-05-19T03:49:34.774Z,79.40
2023-05-19T03:50:38.016Z,77.91
2023-05-19T03:51:39.468Z,78.32
2023-05-19T03:52:46.585Z,78.97
2023-05-19T03:53:48.735Z,77.06
2023-05-19T03:54:51.171Z,77.86
2023-05-19T03:55:52.617Z,77.87
2023-05-19T03:56:54.106Z,78.13
2023-05-19T03:57:56.670Z,76.35
2023-05-19T03:58:58.121Z,76.02
2023-05-19T03:59:59.717Z,75.95
2023-05-19T04:01:01.249Z,76.31
2023-05-19T04:02:02.925Z,75.83
2023-05-19T04:03:04.539Z,75.25
2023-05-19T04:04:06.297Z,75.38
2023-05-19T04:05:08.500Z,75.95
2023-05-19T04:06:09.963Z,74.68
2023-05-19T04:07:11.721Z,74.37
2023-05-19T04:08:13.202Z,74.07
2023-05-19T04:09:15.868Z,74.21
2023-05-19T04:10:17.371Z,74.06
2023-05-19T04:11:20.046Z,73.78
2023-05-19T04:12:21.516Z,73.88
2023-05-19T04:13:23.031Z,73.27
2023-05-19T04:14:24.737Z,74.23
2023-05-19T04:15:26.401Z,73.61
2023-05-19T04:16:27.960Z,73.91
2023-05-19T04:17:29.639Z,73.46
2023-05-19T04:18:31.464Z,73.46
2023-05-19T04:19:32.906Z,73.51
2023-05-19T04:20:34.687Z,73.74
2023-05-19T04:21:36.330Z,73.72
2023-05-19T04:22:37.782Z,73.75
2023-05-19T04:23:39.355Z,73.04
2023-05-19T04:24:40.901Z,72.81
2023-05-19T04:25:42.696Z,73.18
2023-05-19T04:26:46.918Z,72.67
2023-05-19T04:27:48.751Z,72.18
2023-05-19T04:28:50.229Z,72.66
2023-05-19T04:29:51.711Z,72.89
2023-05-19T04:30:53.300Z,72.03
2023-05-19T04:31:55.298Z,71.97
2023-05-19T04:32:58.120Z,72.96
2023-05-19T04:34:01.674Z,72.13
2023-05-19T04:35:03.991Z,71.17
2023-05-19T04:36:08.727Z,72.02
2023-05-19T04:37:10.836Z,71.69
2023-05-19T04:38:12.326Z,71.33
2023-05-19T04:39:14.441Z,72.81
2023-05-19T04:40:15.967Z,72.16
2023-05-19T04:41:17.564Z,71.38
2023-05-19T04:42:21.869Z,72.70
2023-05-19T04:43:23.308Z,71.21
2023-05-19T04:44:24.789Z,72.55
2023-05-19T04:45:26.328Z,72.20
2023-05-19T04:46:29.937Z,71.87
2023-05-19T04:47:31.582Z,71.40
2023-05-19T04:48:33.329Z,71.78
2023-05-19T04:49:38.853Z,71.07
2023-05-19T04:50:42.013Z,71.60
2023-05-19T04:51:43.476Z,71.56
2023-05-19T04:52:47.736Z,71.31
2023-05-19T04:53:49.318Z,70.87
2023-05-19T04:54:50.939Z,71.55
2023-05-19T04:55:52.434Z,71.81
2023-05-19T04:56:53.862Z,70.97
2023-05-19T04:57:55.606Z,71.30
2023-05-19T04:58:57.134Z,70.54
2023-05-19T05:00:00.207Z,71.62
2023-05-19T05:01:01.810Z,71.98
2023-05-19T05:02:04.277Z,70.53
2023-05-19T05:03:06.938Z,71.34
2023-05-19T05:04:08.623Z,71.34
2023-05-19T05:05:10.135Z,71.32
2023-05-19T05:06:11.715Z,71.37
2023-05-19T05:07:13.291Z,71.77
2023-05-19T05:08:16.255Z,72.09
2023-05-19T05:09:18.342Z,72.05
2023-05-19T05:10:19.958Z,72.04
2023-05-19T05:11:22.120Z,71.93
2023-05-19T05:12:23.763Z,71.29
2023-05-19T05:13:25.560Z,72.85
2023-05-19T05:14:27.362Z,71.64
2023-05-19T05:15:29.886Z,71.16
2023-05-19T05:16:32.071Z,69.86
2023-05-19T05:17:35.320Z,70.49
2023-05-19T05:18:38.662Z,71.08
2023-05-19T05:19:40.597Z,70.46
2023-05-19T05:20:46.822Z,72.10
2023-05-19T05:21:48.640Z,70.54
2023-05-19T05:22:50.324Z,69.72
2023-05-19T05:23:52.480Z,70.65
2023-05-19T05:24:54.189Z,72.85
2023-05-19T05:25:55.952Z,70.65
2023-05-19T05:26:58.899Z,71.63
2023-05-19T05:28:04.854Z,71.49
2023-05-19T05:29:06.617Z,70.01
2023-05-19T05:30:08.570Z,70.98
2023-05-19T05:31:09.917Z,71.13
2023-05-19T05:32:11.410Z,70.95
2023-05-19T05:33:13.194Z,70.98
2023-05-19T05:34:14.929Z,71.09
2023-05-19T05:35:16.585Z,71.72
2023-05-19T05:36:18.037Z,71.14
2023-05-19T05:37:19.533Z,72.25
2023-05-19T05:38:20.984Z,71.43
2023-05-19T05:39:22.462Z,71.98
2023-05-19T05:40:24.011Z,71.24
2023-05-19T05:41:27.268Z,71.48
2023-05-19T05:42:29.796Z,71.37
2023-05-19T05:43:31.613Z,71.07
2023-05-19T05:44:35.600Z,70.95
2023-05-19T05:45:37.120Z,71.76
2023-05-19T05:46:38.916Z,71.33
2023-05-19T05:47:41.523Z,71.67
2023-05-19T05:48:43.310Z,71.86
2023-05-19T05:49:48.102Z,71.26
2023-05-19T05:50:50.657Z,71.12
2023-05-19T05:52:05.004Z,70.82
2023-05-19T05:53:09.589Z,70.02
2023-05-19T05:54:12.511Z,70.24
2023-05-19T05:55:15.458Z,69.05
2023-05-19T05:56:17.244Z,67.78
2023-05-19T05:57:19.089Z,67.50
2023-05-19T05:58:21.275Z,67.72
2023-05-19T05:59:22.851Z,67.01
2023-05-19T06:00:25.059Z,66.68
2023-05-19T06:01:26.513Z,65.17
2023-05-19T06:02:31.633Z,65.52
2023-05-19T06:03:33.495Z,66.30
2023-05-19T06:04:35.120Z,66.96
2023-05-19T06:05:37.084Z,66.81
2023-05-19T06:06:38.863Z,66.66
2023-05-19T06:07:40.920Z,66.51
2023-05-19T06:08:42.536Z,67.97
2023-05-19T06:09:44.080Z,66.89
2023-05-19T06:10:47.404Z,65.77
2023-05-19T06:11:49.043Z,67.11
2023-05-19T06:12:50.565Z,65.51
2023-05-19T06:13:52.112Z,67.32
2023-05-19T06:14:53.583Z,66.45
2023-05-19T06:15:55.075Z,66.60
2023-05-19T06:16:56.578Z,66.31
2023-05-19T06:17:58.048Z,65.42
2023-05-19T06:18:59.711Z,66.78
2023-05-19T06:20:02.132Z,65.06
2023-05-19T06:21:03.816Z,66.07
2023-05-19T06:22:05.401Z,65.10
2023-05-19T06:23:06.857Z,65.73
2023-05-19T06:24:08.385Z,65.85
2023-05-19T06:25:10.157Z,66.27
2023-05-19T06:26:11.690Z,66.63
2023-05-19T06:27:13.864Z,65.03
2023-05-19T06:28:15.463Z,65.38
2023-05-19T06:29:17.266Z,65.92
2023-05-19T06:30:18.818Z,65.53
2023-05-19T06:31:20.279Z,67.73
2023-05-19T06:32:21.882Z,67.72
2023-05-19T06:33:23.390Z,65.84
2023-05-19T06:34:25.011Z,66.51
2023-05-19T06:35:26.487Z,66.02
2023-05-19T06:36:28.121Z,65.39
2023-05-19T06:37:29.641Z,65.85
2023-05-19T06:38:31.523Z,65.51
2023-05-19T06:39:33.341Z,65.64
2023-05-19T06:40:35.967Z,64.95
2023-05-19T06:41:37.447Z,66.06
2023-05-19T06:42:38.959Z,65.38
2023-05-19T06:43:40.614Z,65.96
2023-05-19T06:44:42.104Z,66.52
2023-05-19T06:45:43.657Z,66.24
2023-05-19T06:46:45.274Z,64.91
2023-05-19T06:47:46.870Z,65.49
2023-05-19T06:48:48.341Z,64.24
2023-05-19T06:49:55.874Z,63.95
2023-05-19T06:50:57.353Z,63.98
2023-05-19T06:51:58.835Z,64.83
2023-05-19T06:53:00.553Z,63.23
2023-05-19T06:54:02.504Z,64.21
2023-05-19T06:55:04.028Z,63.63
2023-05-19T06:56:05.922Z,64.20
2023-05-19T06:57:07.369Z,63.61
2023-05-19T06:58:08.889Z,63.96
2023-05-19T06:59:10.819Z,64.57
2023-05-19T07:00:15.146Z,63.46
2023-05-19T07:01:18.442Z,63.90
2023-05-19T07:02:19.934Z,64.60
2023-05-19T07:03:21.650Z,64.49
2023-05-19T07:04:23.280Z,62.95
2023-05-19T07:05:24.729Z,63.43
2023-05-19T07:06:26.580Z,63.13
2023-05-19T07:07:28.022Z,63.19
2023-05-19T07:08:29.461Z,62.11
2023-05-19T07:09:31.053Z,62.21
2023-05-19T07:10:32.679Z,61.96
2023-05-19T07:11:34.625Z,61.75
2023-05-19T07:12:36.146Z,61.56
2023-05-19T07:13:37.606Z,61.85
2023-05-19T07:14:39.139Z,62.18
2023-05-19T07:15:40.867Z,62.53
2023-05-19T07:16:42.345Z,63.55
2023-05-19T07:17:45.565Z,62.57
2023-05-19T07:18:47.169Z,62.24
2023-05-19T07:19:48.673Z,61.53
2023-05-19T07:20:52.212Z,62.27
2023-05-19T07:21:54.882Z,60.28
2023-05-19T07:22:56.408Z,60.39
2023-05-19T07:23:57.916Z,61.50
2023-05-19T07:24:59.494Z,60.70
2023-05-19T07:26:01.141Z,60.39
2023-05-19T07:27:02.671Z,60.50
2023-05-19T07:28:04.283Z,59.04
2023-05-19T07:29:05.914Z,59.51
2023-05-19T07:30:08.336Z,58.87
2023-05-19T07:31:09.890Z,58.86
2023-05-19T07:32:11.452Z,60.10
2023-05-19T07:33:13.022Z,58.12
2023-05-19T07:34:14.537Z,58.58
2023-05-19T07:35:16.056Z,58.47
2023-05-19T07:36:17.638Z,59.50
2023-05-19T07:37:19.108Z,58.40
2023-05-19T07:38:20.695Z,57.79
2023-05-19T07:39:23.513Z,57.51
2023-05-19T07:40:25.109Z,57.31
2023-05-19T07:41:26.786Z,58.19
2023-05-19T07:42:28.274Z,58.33
2023-05-19T07:43:29.902Z,59.74
2023-05-19T07:44:31.466Z,57.11
2023-05-19T07:45:33.030Z,56.65
2023-05-19T07:46:35.381Z,57.77
2023-05-19T07:47:37.481Z,58.17
2023-05-19T07:48:38.969Z,57.66
2023-05-19T07:49:40.698Z,57.48
2023-05-19T07:50:42.139Z,58.43
2023-05-19T07:51:43.686Z,57.62
2023-05-19T07:52:45.149Z,59.65
2023-05-19T07:53:47.123Z,56.75
2023-05-19T07:54:48.767Z,57.62
2023-05-19T07:55:50.245Z,58.41
2023-05-19T07:56:51.758Z,59.11
2023-05-19T07:57:53.255Z,57.66
2023-05-19T07:58:54.799Z,56.70
2023-05-19T07:59:56.514Z,56.07
2023-05-19T08:00:58.963Z,57.00
2023-05-19T08:02:00.457Z,55.76
2023-05-19T08:03:02.419Z,56.16
2023-05-19T08:04:04.075Z,55.05
2023-05-19T08:05:06.108Z,55.15
2023-05-19T08:06:07.628Z,55.71
2023-05-19T08:07:09.077Z,58.39
2023-05-19T08:08:11.802Z,58.21
2023-05-19T08:09:13.327Z,54.88
2023-05-19T08:10:14.888Z,55.20
2023-05-19T08:11:16.497Z,55.01
2023-05-19T08:12:17.938Z,55.31
2023-05-19T08:13:19.444Z,58.20
2023-05-19T08:14:22.918Z,57.43
2023-05-19T08:15:25.282Z,55.05
2023-05-19T08:16:26.835Z,56.15
2023-05-19T08:17:28.494Z,57.24
2023-05-19T08:18:30.000Z,55.87
2023-05-19T08:19:31.572Z,56.04
2023-05-19T08:20:34.141Z,55.31
2023-05-19T08:21:36.474Z,54.65
2023-05-19T08:22:38.235Z,54.83
2023-05-19T08:23:39.730Z,54.33
2023-05-19T08:24:43.169Z,53.25
2023-05-19T08:25:45.589Z,54.40
2023-05-19T08:26:47.022Z,53.29
2023-05-19T08:27:48.484Z,53.28
2023-05-19T08:28:49.966Z,53.99
2023-05-19T08:29:51.464Z,53.95
2023-05-19T08:30:52.993Z,51.92
2023-05-19T08:31:54.522Z,52.41
2023-05-19T08:32:56.074Z,52.89
2023-05-19T08:33:57.588Z,51.35
2023-05-19T08:34:59.063Z,49.56
2023-05-19T08:36:00.604Z,50.19
2023-05-19T08:37:03.070Z,50.97
2023-05-19T08:38:04.540Z,50.75
2023-05-19T08:39:06.540Z,51.33
2023-05-19T08:40:11.762Z,52.77
2023-05-19T08:41:13.256Z,50.80
2023-05-19T08:42:14.853Z,49.57
2023-05-19T08:43:16.400Z,49.34
2023-05-19T08:44:19.114Z,50.23
2023-05-19T08:45:24.420Z,50.92
2023-05-19T08:46:26.974Z,52.08
2023-05-19T08:47:28.669Z,50.24
2023-05-19T08:48:33.302Z,51.33
2023-05-19T08:49:42.897Z,47.77
2023-05-19T08:50:52.911Z,51.29
2023-05-19T08:52:06.295Z,46.78
2023-05-19T08:53:33.222Z,48.39
2023-05-19T08:55:01.034Z,47.29
2023-05-19T08:56:11.741Z,47.28
2023-05-19T08:57:14.029Z,49.44
2023-05-19T08:58:20.346Z,47.66
2023-05-19T08:59:22.680Z,46.11
2023-05-19T09:00:24.840Z,46.88
2023-05-19T09:01:28.890Z,47.09
2023-05-19T09:02:30.904Z,47.14
2023-05-19T09:03:38.055Z,47.44
2023-05-19T09:04:41.453Z,48.75
2023-05-19T09:05:43.263Z,48.53
2023-05-19T09:06:45.365Z,48.64
2023-05-19T09:07:48.224Z,50.06
2023-05-19T09:08:49.805Z,50.39
2023-05-19T09:09:51.583Z,48.00
2023-05-19T09:10:53.050Z,48.37
2023-05-19T09:11:54.554Z,46.38
2023-05-19T09:12:56.188Z,46.25
2023-05-19T09:13:57.655Z,45.98
2023-05-19T09:14:59.288Z,44.67
2023-05-19T09:16:01.978Z,45.99
2023-05-19T09:17:04.189Z,45.98
2023-05-19T09:18:11.283Z,45.22
2023-05-19T09:19:15.880Z,45.41
2023-05-19T09:20:17.528Z,45.14
2023-05-19T09:21:19.113Z,47.00
2023-05-19T09:22:21.116Z,46.27
2023-05-19T09:23:24.863Z,45.04
2023-05-19T09:24:26.933Z,45.22
2023-05-19T09:25:28.482Z,45.11
2023-05-19T09:26:37.557Z,45.57
2023-05-19T09:27:39.213Z,45.81
2023-05-19T09:28:41.061Z,46.13
2023-05-19T09:29:43.149Z,44.64
2023-05-19T09:30:44.608Z,43.99
2023-05-19T09:31:53.735Z,45.81
2023-05-19T09:32:55.343Z,42.14
2023-05-19T09:33:56.842Z,43.16
2023-05-19T09:34:58.759Z,42.01
2023-05-19T09:36:00.619Z,42.28
2023-05-19T09:37:02.096Z,42.56
2023-05-19T09:38:03.642Z,43.27
2023-05-19T09:39:13.508Z,43.25
2023-05-19T09:40:16.009Z,40.04
2023-05-19T09:41:17.632Z,41.75
2023-05-19T09:42:30.079Z,42.09
2023-05-19T09:43:36.439Z,41.78
2023-05-19T09:44:38.035Z,43.42
2023-05-19T09:45:39.486Z,43.09
2023-05-19T09:46:48.193Z,41.38
2023-05-19T09:47:49.668Z,42.03
2023-05-19T09:48:51.483Z,42.27
2023-05-19T09:49:53.595Z,42.67
2023-05-19T09:50:55.240Z,42.74
2023-05-19T09:51:57.957Z,42.71
2023-05-19T09:53:00.160Z,44.75
2023-05-19T09:54:02.096Z,43.75
2023-05-19T09:55:05.566Z,43.34
2023-05-19T09:56:08.745Z,43.11
2023-05-19T09:57:10.318Z,43.12
2023-05-19T09:58:17.228Z,42.67
2023-05-19T09:59:20.110Z,42.42
2023-05-19T10:00:23.017Z,41.89
2023-05-19T10:01:25.610Z,42.53
2023-05-19T10:02:28.135Z,41.58
2023-05-19T10:03:30.950Z,42.34
2023-05-19T10:04:32.492Z,42.64
2023-05-19T10:05:34.588Z,42.59
2023-05-19T10:06:36.959Z,42.62
2023-05-19T10:07:40.427Z,42.53
2023-05-19T10:08:42.599Z,42.51
2023-05-19T10:09:45.059Z,42.26
2023-05-19T10:10:47.629Z,41.44
2023-05-19T10:11:51.478Z,43.09
2023-05-19T10:12:54.478Z,42.49
2023-05-19T10:13:56.711Z,42.04
2023-05-19T10:14:59.320Z,45.64
2023-05-19T10:16:01.379Z,45.14
2023-05-19T10:17:04.046Z,42.84
2023-05-19T10:18:09.053Z,42.12
2023-05-19T10:19:12.690Z,44.15
2023-05-19T10:20:16.130Z,40.42
2023-05-19T10:21:18.235Z,39.20
2023-05-19T10:22:19.702Z,37.82
2023-05-19T10:23:22.262Z,38.95
2023-05-19T10:24:23.909Z,39.00
2023-05-19T10:25:25.768Z,39.82
2023-05-19T10:26:28.328Z,38.91
2023-05-19T10:27:31.548Z,39.26
2023-05-19T10:28:38.403Z,41.65
2023-05-19T10:29:44.385Z,38.45
2023-05-19T10:30:49.459Z,38.69
2023-05-19T10:31:53.380Z,38.93
2023-05-19T10:32:57.263Z,38.38
2023-05-19T10:34:34.720Z,39.38
2023-05-19T10:35:58.023Z,39.68
2023-05-19T10:37:16.948Z,38.42
2023-05-19T10:38:43.056Z,38.16
2023-05-19T10:39:45.029Z,37.66
2023-05-19T10:41:22.970Z,38.86
2023-05-19T10:42:41.008Z,38.75
2023-05-19T10:43:51.342Z,41.01
2023-05-19T10:45:13.634Z,38.08
2023-05-19T10:46:15.779Z,42.28
2023-05-19T10:47:24.335Z,37.02
2023-05-19T10:48:25.931Z,37.97
2023-05-19T10:49:27.686Z,37.27
2023-05-19T10:50:35.380Z,38.94
2023-05-19T10:51:37.203Z,37.63
2023-05-19T10:52:39.225Z,36.61
2023-05-19T10:53:46.141Z,38.28
2023-05-19T10:54:47.733Z,40.21
2023-05-19T10:55:56.060Z,40.89
2023-05-19T10:56:57.937Z,37.93
2023-05-19T10:58:00.408Z,35.68
2023-05-19T10:59:03.464Z,35.71
2023-05-19T11:00:29.114Z,38.04
2023-05-19T11:01:34.615Z,35.51
2023-05-19T11:02:43.899Z,37.23
2023-05-19T11:03:52.118Z,35.66
2023-05-19T11:04:56.282Z,35.37
2023-05-19T11:06:17.489Z,37.75
2023-05-19T11:07:22.038Z,36.93
2023-05-19T11:08:34.382Z,38.29
2023-05-19T11:09:41.101Z,38.84
2023-05-19T11:10:46.266Z,38.22
2023-05-19T11:11:49.973Z,34.68
2023-05-19T11:12:52.266Z,36.63
2023-05-19T11:13:55.178Z,36.70
2023-05-19T11:14:59.308Z,38.74
2023-05-19T11:16:08.216Z,36.03
2023-05-19T11:17:16.070Z,36.88
2023-05-19T11:18:19.282Z,36.21
2023-05-19T11:19:35.049Z,36.90
2023-05-19T11:20:39.196Z,37.41
2023-05-19T11:21:52.519Z,36.67
2023-05-19T11:23:20.198Z,37.16
2023-05-19T11:24:38.057Z,36.60
2023-05-19T11:25:43.192Z,36.67
2023-05-19T11:26:45.652Z,37.16
2023-05-19T11:27:47.178Z,37.20
2023-05-19T11:28:49.038Z,37.18
2023-05-19T11:29:51.778Z,35.60
2023-05-19T11:30:55.016Z,35.65
2023-05-19T11:31:56.669Z,36.39
2023-05-19T11:32:58.888Z,36.08
2023-05-19T11:34:00.464Z,36.74
2023-05-19T11:35:02.816Z,37.16
2023-05-19T11:36:04.930Z,36.87
2023-05-19T11:37:06.765Z,37.23
2023-05-19T11:38:08.187Z,36.67
2023-05-19T11:39:10.479Z,38.23
2023-05-19T11:40:15.641Z,37.72
2023-05-19T11:41:18.821Z,37.76
2023-05-19T11:42:21.870Z,37.95
2023-05-19T11:43:25.267Z,38.06
2023-05-19T11:44:26.735Z,37.62
2023-05-19T11:45:31.602Z,38.20
2023-05-19T11:46:33.241Z,37.70
2023-05-19T11:47:46.499Z,40.23
2023-05-19T11:48:56.469Z,38.65
2023-05-19T11:49:58.031Z,38.93
2023-05-19T11:51:00.949Z,39.19
2023-05-19T11:52:03.873Z,39.70
2023-05-19T11:53:05.550Z,40.18
2023-05-19T11:54:10.282Z,40.57
2023-05-19T11:55:19.043Z,41.89
2023-05-19T11:56:21.520Z,41.47
2023-05-19T11:57:23.045Z,40.52
2023-05-19T11:58:27.882Z,40.74
2023-05-19T11:59:39.147Z,39.43
2023-05-19T12:00:42.848Z,38.44
2023-05-19T12:01:44.333Z,39.75
2023-05-19T12:02:45.878Z,39.53
2023-05-19T12:03:49.741Z,42.40
2023-05-19T12:04:51.796Z,40.15
2023-05-19T12:05:53.717Z,41.22
2023-05-19T12:06:55.230Z,40.28
2023-05-19T12:07:56.909Z,38.36
2023-05-19T12:08:59.176Z,38.88
2023-05-19T12:10:01.204Z,38.08
2023-05-19T12:11:02.770Z,38.05
2023-05-19T12:12:04.927Z,39.67
2023-05-19T12:13:09.411Z,39.28
2023-05-19T12:14:12.251Z,38.85
2023-05-19T12:15:14.486Z,40.10
2023-05-19T12:16:16.036Z,38.20
2023-05-19T12:17:19.847Z,37.76
2023-05-19T12:18:21.448Z,38.16
2023-05-19T12:19:26.475Z,39.12
2023-05-19T12:20:29.691Z,39.81
2023-05-19T12:21:34.178Z,39.47
2023-05-19T12:22:36.720Z,39.52
2023-05-19T12:23:38.787Z,40.50
2023-05-19T12:24:41.857Z,40.93
2023-05-19T12:25:43.401Z,40.44
2023-05-19T12:26:44.852Z,40.65
2023-05-19T12:27:48.544Z,39.98
2023-05-19T12:28:51.060Z,40.20
2023-05-19T12:29:54.672Z,40.65
2023-05-19T12:30:58.398Z,40.38
2023-05-19T12:32:01.585Z,39.97
2023-05-19T12:33:03.493Z,41.02
2023-05-19T12:34:05.352Z,40.91
2023-05-19T12:35:07.417Z,40.55
2023-05-19T12:36:10.375Z,40.79
2023-05-19T12:37:11.932Z,40.31
2023-05-19T12:38:14.757Z,40.41
2023-05-19T12:39:16.665Z,39.87
2023-05-19T12:40:18.242Z,39.53
2023-05-19T12:41:19.854Z,41.58
2023-05-19T12:42:21.355Z,37.98
2023-05-19T12:43:23.261Z,37.18
2023-05-19T12:44:24.914Z,35.58
2023-05-19T12:45:29.639Z,34.82
2023-05-19T12:46:33.025Z,34.10
2023-05-19T12:47:35.771Z,34.44
2023-05-19T12:48:44.376Z,33.41
2023-05-19T12:49:56.302Z,33.22
2023-05-19T12:50:57.796Z,32.62
2023-05-19T12:52:03.520Z,33.38
2023-05-19T12:53:14.121Z,34.25
2023-05-19T12:54:19.583Z,35.18
2023-05-19T12:55:22.116Z,35.44
2023-05-19T12:56:26.989Z,36.82
2023-05-19T12:57:32.410Z,38.85
2023-05-19T12:58:34.359Z,37.38
2023-05-19T12:59:38.846Z,37.64
2023-05-19T13:00:42.601Z,37.91
2023-05-19T13:01:44.283Z,38.43
2023-05-19T13:02:55.884Z,39.73
2023-05-19T13:03:57.662Z,39.49
2023-05-19T13:04:59.583Z,39.36
2023-05-19T13:06:01.055Z,38.66
2023-05-19T13:07:02.569Z,38.64
2023-05-19T13:08:12.630Z,38.16
2023-05-19T13:09:16.932Z,38.44
2023-05-19T13:10:18.674Z,38.27
2023-05-19T13:11:20.138Z,37.86
2023-05-19T13:12:21.588Z,38.20
2023-05-19T13:13:23.115Z,38.50
2023-05-19T13:14:24.610Z,38.30
2023-05-19T13:15:28.278Z,37.40
2023-05-19T13:16:30.082Z,37.28
2023-05-19T13:17:31.492Z,36.14
2023-05-19T13:18:32.993Z,37.33
2023-05-19T13:19:34.553Z,37.95
2023-05-19T13:20:37.581Z,36.93
2023-05-19T13:21:39.081Z,36.68
2023-05-19T13:22:40.761Z,37.06
2023-05-19T13:23:42.191Z,37.88
2023-05-19T13:24:43.666Z,37.42
2023-05-19T13:25:45.490Z,37.12
2023-05-19T13:26:48.094Z,37.33
2023-05-19T13:27:49.677Z,36.33
2023-05-19T13:28:51.190Z,36.70
2023-05-19T13:29:52.646Z,36.92
2023-05-19T13:30:55.131Z,37.66
2023-05-19T13:31:57.355Z,39.54
2023-05-19T13:33:00.040Z,38.92
2023-05-19T13:34:02.208Z,38.73
2023-05-19T13:35:03.975Z,38.46
2023-05-19T13:36:05.589Z,38.60
2023-05-19T13:37:10.078Z,37.57
2023-05-19T13:38:11.911Z,37.60